This is the latest recevied weather packets stored in our database for station/object N8XE-13. If no packets are shown the sender has not sent any weather packets the latest 10 day(s).
| Time | Temp. | Humidity | Pressure | Rain* | Wind** | Luminosity | Snow |
|---|---|---|---|---|---|---|---|
| 1777825590 | 15.56° C | 39% | - | 0 mm | - | - | - |
| 1777825288 | 15° C | 40% | - | 0 mm | - | - | - |
| 1777824985 | 15° C | 40% | - | 0 mm | - | - | - |
| 1777824680 | 15° C | 41% | - | 0 mm | - | - | - |
| 1777824378 | 15° C | 41% | - | 0 mm | - | - | - |
| 1777824073 | 15° C | 42% | - | 0 mm | - | - | - |
| 1777823770 | 15° C | 40% | - | 0 mm | - | - | - |
| 1777823467 | 14.44° C | 42% | - | 0 mm | - | - | - |
| 1777823164 | 13.89° C | 42% | - | 0 mm | - | - | - |
| 1777822862 | 14.44° C | 41% | - | 0 mm | - | - | - |
| 1777822559 | 13.89° C | 47% | - | 0 mm | - | - | - |
| 1777822256 | 13.89° C | 46% | - | 0 mm | - | - | - |
| 1777821954 | 13.89° C | 47% | - | 0 mm | - | - | - |
| 1777821652 | 13.33° C | 47% | - | 0 mm | - | - | - |
| 1777821350 | 13.33° C | 48% | - | 0 mm | - | - | - |
| 1777821046 | 13.33° C | 47% | - | 0 mm | - | - | - |
| 1777820743 | 12.78° C | 49% | - | 0 mm | - | - | - |
| 1777820439 | 12.78° C | 49% | - | 0 mm | - | - | - |
| 1777820137 | 12.22° C | 49% | - | 0 mm | - | - | - |
| 1777819834 | 12.22° C | 48% | - | 0 mm | - | - | - |
| 1777819531 | 12.22° C | 49% | - | 0 mm | - | - | - |
| 1777819229 | 12.22° C | 49% | - | 0 mm | - | - | - |
| 1777818925 | 12.22° C | 49% | - | 0 mm | - | - | - |
| 1777818621 | 11.67° C | 50% | - | 0 mm | - | - | - |
| 1777818319 | 11.11° C | 51% | - | 0 mm | - | - | - |
* Rain latest hour (hover to see other rain measurements)
** Current wind speed in m/s (hover to see current wind gust speed)